sensor_id;sensor_type;location;lat;lon;timestamp;P1;durP1;ratioP1;P2;durP2;ratioP2
10934;SDS011;5520;45.752;4.874;2023-11-21T00:00:03;12.83;;;6.30;;
10934;SDS011;5520;45.752;4.874;2023-11-21T00:02:38;8.90;;;6.67;;
10934;SDS011;5520;45.752;4.874;2023-11-21T00:05:07;13.17;;;6.50;;
10934;SDS011;5520;45.752;4.874;2023-11-21T00:07:36;8.70;;;6.07;;
10934;SDS011;5520;45.752;4.874;2023-11-21T00:10:05;10.20;;;5.77;;
10934;SDS011;5520;45.752;4.874;2023-11-21T00:12:33;14.67;;;5.87;;
10934;SDS011;5520;45.752;4.874;2023-11-21T00:15:02;9.83;;;5.20;;
10934;SDS011;5520;45.752;4.874;2023-11-21T00:17:32;7.67;;;5.63;;
10934;SDS011;5520;45.752;4.874;2023-11-21T00:20:02;9.27;;;5.30;;
10934;SDS011;5520;45.752;4.874;2023-11-21T00:22:33;9.63;;;5.20;;
10934;SDS011;5520;45.752;4.874;2023-11-21T00:25:01;7.97;;;5.80;;
10934;SDS011;5520;45.752;4.874;2023-11-21T00:27:30;9.47;;;5.83;;
10934;SDS011;5520;45.752;4.874;2023-11-21T00:29:58;9.67;;;6.87;;
10934;SDS011;5520;45.752;4.874;2023-11-21T00:32:27;9.63;;;5.90;;
10934;SDS011;5520;45.752;4.874;2023-11-21T00:34:55;9.90;;;5.20;;
10934;SDS011;5520;45.752;4.874;2023-11-21T00:37:24;10.60;;;5.13;;
10934;SDS011;5520;45.752;4.874;2023-11-21T00:39:52;12.83;;;6.00;;
10934;SDS011;5520;45.752;4.874;2023-11-21T00:42:21;8.77;;;5.40;;
10934;SDS011;5520;45.752;4.874;2023-11-21T00:44:49;8.27;;;5.17;;
10934;SDS011;5520;45.752;4.874;2023-11-21T00:47:17;9.67;;;6.03;;
10934;SDS011;5520;45.752;4.874;2023-11-21T00:49:45;16.30;;;6.73;;
10934;SDS011;5520;45.752;4.874;2023-11-21T00:52:13;9.20;;;6.47;;
10934;SDS011;5520;45.752;4.874;2023-11-21T00:54:44;16.10;;;6.37;;
10934;SDS011;5520;45.752;4.874;2023-11-21T00:57:12;8.13;;;6.33;;
10934;SDS011;5520;45.752;4.874;2023-11-21T00:59:40;11.33;;;7.03;;
10934;SDS011;5520;45.752;4.874;2023-11-21T01:02:08;10.30;;;7.63;;
10934;SDS011;5520;45.752;4.874;2023-11-21T01:04:37;15.30;;;8.07;;
10934;SDS011;5520;45.752;4.874;2023-11-21T01:07:05;12.47;;;7.70;;
10934;SDS011;5520;45.752;4.874;2023-11-21T01:09:33;13.00;;;8.00;;
10934;SDS011;5520;45.752;4.874;2023-11-21T01:12:03;13.63;;;7.90;;
10934;SDS011;5520;45.752;4.874;2023-11-21T01:14:31;13.70;;;8.57;;
10934;SDS011;5520;45.752;4.874;2023-11-21T01:16:59;18.33;;;10.43;;
10934;SDS011;5520;45.752;4.874;2023-11-21T01:19:28;26.97;;;14.87;;
10934;SDS011;5520;45.752;4.874;2023-11-21T01:21:57;26.20;;;15.13;;
10934;SDS011;5520;45.752;4.874;2023-11-21T01:24:25;28.27;;;14.13;;
10934;SDS011;5520;45.752;4.874;2023-11-21T01:26:53;26.70;;;14.67;;
10934;SDS011;5520;45.752;4.874;2023-11-21T01:29:23;31.03;;;15.57;;
10934;SDS011;5520;45.752;4.874;2023-11-21T01:31:51;24.73;;;14.13;;
10934;SDS011;5520;45.752;4.874;2023-11-21T01:34:19;17.17;;;12.90;;
10934;SDS011;5520;45.752;4.874;2023-11-21T01:36:47;17.70;;;11.20;;
10934;SDS011;5520;45.752;4.874;2023-11-21T01:39:15;24.37;;;13.60;;
10934;SDS011;5520;45.752;4.874;2023-11-21T01:41:50;26.40;;;13.77;;
10934;SDS011;5520;45.752;4.874;2023-11-21T01:44:18;23.93;;;13.30;;
10934;SDS011;5520;45.752;4.874;2023-11-21T01:46:48;22.03;;;13.47;;
10934;SDS011;5520;45.752;4.874;2023-11-21T01:49:16;22.60;;;14.77;;
10934;SDS011;5520;45.752;4.874;2023-11-21T01:51:45;21.83;;;14.07;;
10934;SDS011;5520;45.752;4.874;2023-11-21T01:54:15;24.90;;;14.80;;
10934;SDS011;5520;45.752;4.874;2023-11-21T01:56:44;20.37;;;13.70;;
10934;SDS011;5520;45.752;4.874;2023-11-21T01:59:14;24.13;;;13.67;;
10934;SDS011;5520;45.752;4.874;2023-11-21T02:01:43;25.63;;;14.10;;
10934;SDS011;5520;45.752;4.874;2023-11-21T02:04:13;18.10;;;13.07;;
10934;SDS011;5520;45.752;4.874;2023-11-21T02:06:42;22.17;;;12.97;;
10934;SDS011;5520;45.752;4.874;2023-11-21T02:09:11;22.47;;;12.97;;
10934;SDS011;5520;45.752;4.874;2023-11-21T02:11:42;18.20;;;12.47;;
10934;SDS011;5520;45.752;4.874;2023-11-21T02:14:10;16.90;;;10.90;;
10934;SDS011;5520;45.752;4.874;2023-11-21T02:16:40;16.60;;;10.87;;
10934;SDS011;5520;45.752;4.874;2023-11-21T02:19:09;14.87;;;10.07;;
10934;SDS011;5520;45.752;4.874;2023-11-21T02:21:41;15.63;;;9.20;;
10934;SDS011;5520;45.752;4.874;2023-11-21T02:24:11;16.40;;;10.27;;
10934;SDS011;5520;45.752;4.874;2023-11-21T02:26:39;13.87;;;9.93;;
10934;SDS011;5520;45.752;4.874;2023-11-21T02:29:08;15.17;;;9.70;;
10934;SDS011;5520;45.752;4.874;2023-11-21T02:31:38;14.63;;;8.57;;
10934;SDS011;5520;45.752;4.874;2023-11-21T02:34:14;12.57;;;8.47;;
10934;SDS011;5520;45.752;4.874;2023-11-21T02:36:43;11.63;;;8.57;;
10934;SDS011;5520;45.752;4.874;2023-11-21T02:39:13;12.97;;;8.13;;
10934;SDS011;5520;45.752;4.874;2023-11-21T02:41:41;15.03;;;8.20;;
10934;SDS011;5520;45.752;4.874;2023-11-21T02:44:09;10.47;;;7.97;;
10934;SDS011;5520;45.752;4.874;2023-11-21T02:46:37;8.73;;;7.47;;
10934;SDS011;5520;45.752;4.874;2023-11-21T02:49:06;12.03;;;7.50;;
10934;SDS011;5520;45.752;4.874;2023-11-21T02:51:36;9.83;;;6.57;;
10934;SDS011;5520;45.752;4.874;2023-11-21T02:54:05;10.33;;;6.33;;
10934;SDS011;5520;45.752;4.874;2023-11-21T02:56:36;9.07;;;6.90;;
10934;SDS011;5520;45.752;4.874;2023-11-21T02:59:06;8.23;;;6.17;;
10934;SDS011;5520;45.752;4.874;2023-11-21T03:01:34;7.83;;;4.77;;
10934;SDS011;5520;45.752;4.874;2023-11-21T03:04:03;7.93;;;5.23;;
10934;SDS011;5520;45.752;4.874;2023-11-21T03:06:31;11.43;;;5.20;;
10934;SDS011;5520;45.752;4.874;2023-11-21T03:09:00;8.83;;;4.50;;
10934;SDS011;5520;45.752;4.874;2023-11-21T03:11:28;5.93;;;4.63;;
10934;SDS011;5520;45.752;4.874;2023-11-21T03:13:57;10.83;;;4.67;;
10934;SDS011;5520;45.752;4.874;2023-11-21T03:16:26;5.97;;;3.80;;
10934;SDS011;5520;45.752;4.874;2023-11-21T03:18:54;6.27;;;3.93;;
10934;SDS011;5520;45.752;4.874;2023-11-21T03:21:25;5.20;;;3.23;;
10934;SDS011;5520;45.752;4.874;2023-11-21T03:23:53;6.93;;;3.37;;
10934;SDS011;5520;45.752;4.874;2023-11-21T03:26:22;5.97;;;3.53;;
10934;SDS011;5520;45.752;4.874;2023-11-21T03:28:50;3.90;;;2.87;;
10934;SDS011;5520;45.752;4.874;2023-11-21T03:31:21;4.47;;;2.80;;
10934;SDS011;5520;45.752;4.874;2023-11-21T03:33:49;4.17;;;2.63;;
10934;SDS011;5520;45.752;4.874;2023-11-21T03:36:19;4.13;;;2.17;;
10934;SDS011;5520;45.752;4.874;2023-11-21T03:38:47;2.10;;;1.70;;
10934;SDS011;5520;45.752;4.874;2023-11-21T03:41:15;5.90;;;2.10;;
10934;SDS011;5520;45.752;4.874;2023-11-21T03:43:44;4.70;;;2.00;;
10934;SDS011;5520;45.752;4.874;2023-11-21T03:46:12;4.97;;;2.30;;
10934;SDS011;5520;45.752;4.874;2023-11-21T03:48:44;5.03;;;2.03;;
10934;SDS011;5520;45.752;4.874;2023-11-21T03:51:12;2.97;;;1.80;;
10934;SDS011;5520;45.752;4.874;2023-11-21T03:53:40;3.50;;;2.07;;
10934;SDS011;5520;45.752;4.874;2023-11-21T03:56:09;4.23;;;1.83;;
10934;SDS011;5520;45.752;4.874;2023-11-21T03:58:37;2.47;;;2.10;;
10934;SDS011;5520;45.752;4.874;2023-11-21T04:01:05;2.73;;;1.70;;
10934;SDS011;5520;45.752;4.874;2023-11-21T04:03:33;3.50;;;1.60;;
10934;SDS011;5520;45.752;4.874;2023-11-21T04:06:04;2.23;;;1.80;;
10934;SDS011;5520;45.752;4.874;2023-11-21T04:08:33;3.20;;;1.93;;
10934;SDS011;5520;45.752;4.874;2023-11-21T04:11:01;5.03;;;2.10;;
10934;SDS011;5520;45.752;4.874;2023-11-21T04:13:29;6.03;;;1.83;;
10934;SDS011;5520;45.752;4.874;2023-11-21T04:15:58;3.37;;;1.87;;
10934;SDS011;5520;45.752;4.874;2023-11-21T04:18:26;5.63;;;1.77;;
10934;SDS011;5520;45.752;4.874;2023-11-21T04:20:54;2.70;;;1.43;;
10934;SDS011;5520;45.752;4.874;2023-11-21T04:23:24;3.37;;;1.87;;
10934;SDS011;5520;45.752;4.874;2023-11-21T04:25:52;1.57;;;1.40;;
10934;SDS011;5520;45.752;4.874;2023-11-21T04:28:22;2.20;;;1.60;;
10934;SDS011;5520;45.752;4.874;2023-11-21T04:30:51;3.90;;;1.50;;
10934;SDS011;5520;45.752;4.874;2023-11-21T04:33:19;2.43;;;1.47;;
10934;SDS011;5520;45.752;4.874;2023-11-21T04:35:48;5.33;;;1.50;;
10934;SDS011;5520;45.752;4.874;2023-11-21T04:38:16;4.07;;;1.40;;
10934;SDS011;5520;45.752;4.874;2023-11-21T04:40:47;1.83;;;1.40;;
10934;SDS011;5520;45.752;4.874;2023-11-21T04:43:15;6.77;;;1.97;;
10934;SDS011;5520;45.752;4.874;2023-11-21T04:45:43;2.77;;;1.60;;
10934;SDS011;5520;45.752;4.874;2023-11-21T04:48:11;5.07;;;1.77;;
10934;SDS011;5520;45.752;4.874;2023-11-21T04:50:40;4.77;;;2.20;;
10934;SDS011;5520;45.752;4.874;2023-11-21T04:53:08;2.53;;;1.60;;
10934;SDS011;5520;45.752;4.874;2023-11-21T04:55:39;4.90;;;2.10;;
10934;SDS011;5520;45.752;4.874;2023-11-21T04:58:09;5.00;;;2.10;;
10934;SDS011;5520;45.752;4.874;2023-11-21T05:00:38;2.00;;;1.53;;
10934;SDS011;5520;45.752;4.874;2023-11-21T05:03:09;6.37;;;2.03;;
10934;SDS011;5520;45.752;4.874;2023-11-21T05:05:37;4.43;;;1.90;;
10934;SDS011;5520;45.752;4.874;2023-11-21T05:08:05;5.47;;;2.07;;
10934;SDS011;5520;45.752;4.874;2023-11-21T05:10:34;3.27;;;1.93;;
10934;SDS011;5520;45.752;4.874;2023-11-21T05:13:04;3.63;;;2.03;;
10934;SDS011;5520;45.752;4.874;2023-11-21T05:15:37;6.43;;;2.50;;
10934;SDS011;5520;45.752;4.874;2023-11-21T05:18:06;5.50;;;2.03;;
10934;SDS011;5520;45.752;4.874;2023-11-21T05:20:34;8.80;;;2.77;;
10934;SDS011;5520;45.752;4.874;2023-11-21T05:23:02;10.17;;;3.50;;
10934;SDS011;5520;45.752;4.874;2023-11-21T05:25:31;7.80;;;3.23;;
10934;SDS011;5520;45.752;4.874;2023-11-21T05:28:01;6.93;;;3.00;;
10934;SDS011;5520;45.752;4.874;2023-11-21T05:30:30;4.00;;;2.73;;
10934;SDS011;5520;45.752;4.874;2023-11-21T05:33:00;5.57;;;2.60;;
10934;SDS011;5520;45.752;4.874;2023-11-21T05:35:28;10.13;;;3.60;;
10934;SDS011;5520;45.752;4.874;2023-11-21T05:37:56;6.53;;;3.20;;
10934;SDS011;5520;45.752;4.874;2023-11-21T05:40:28;11.00;;;3.40;;
10934;SDS011;5520;45.752;4.874;2023-11-21T05:42:56;3.63;;;2.90;;
10934;SDS011;5520;45.752;4.874;2023-11-21T05:45:25;8.83;;;3.27;;
10934;SDS011;5520;45.752;4.874;2023-11-21T05:47:53;6.20;;;2.97;;
10934;SDS011;5520;45.752;4.874;2023-11-21T05:50:23;5.40;;;3.57;;
10934;SDS011;5520;45.752;4.874;2023-11-21T05:52:52;6.37;;;3.40;;
10934;SDS011;5520;45.752;4.874;2023-11-21T05:55:22;4.87;;;2.87;;
10934;SDS011;5520;45.752;4.874;2023-11-21T05:57:52;5.97;;;2.80;;
10934;SDS011;5520;45.752;4.874;2023-11-21T06:00:20;2.77;;;2.37;;
10934;SDS011;5520;45.752;4.874;2023-11-21T06:02:49;5.67;;;3.10;;
10934;SDS011;5520;45.752;4.874;2023-11-21T06:05:21;5.37;;;3.10;;
10934;SDS011;5520;45.752;4.874;2023-11-21T06:07:55;5.77;;;3.77;;
10934;SDS011;5520;45.752;4.874;2023-11-21T06:10:26;6.37;;;3.50;;
10934;SDS011;5520;45.752;4.874;2023-11-21T06:12:55;6.73;;;3.50;;
10934;SDS011;5520;45.752;4.874;2023-11-21T06:15:28;8.37;;;4.33;;
10934;SDS011;5520;45.752;4.874;2023-11-21T06:18:03;6.83;;;3.50;;
10934;SDS011;5520;45.752;4.874;2023-11-21T06:20:40;8.17;;;4.30;;
10934;SDS011;5520;45.752;4.874;2023-11-21T06:23:10;5.30;;;4.57;;
10934;SDS011;5520;45.752;4.874;2023-11-21T06:25:38;6.97;;;3.87;;
10934;SDS011;5520;45.752;4.874;2023-11-21T06:28:07;4.73;;;3.43;;
10934;SDS011;5520;45.752;4.874;2023-11-21T06:30:35;5.43;;;4.27;;
10934;SDS011;5520;45.752;4.874;2023-11-21T06:33:03;6.90;;;4.30;;
10934;SDS011;5520;45.752;4.874;2023-11-21T06:35:33;8.87;;;4.83;;
10934;SDS011;5520;45.752;4.874;2023-11-21T06:38:01;7.60;;;4.60;;
10934;SDS011;5520;45.752;4.874;2023-11-21T06:40:31;7.67;;;4.30;;
10934;SDS011;5520;45.752;4.874;2023-11-21T06:43:00;8.37;;;4.87;;
10934;SDS011;5520;45.752;4.874;2023-11-21T06:45:28;8.17;;;4.47;;
10934;SDS011;5520;45.752;4.874;2023-11-21T06:47:59;5.13;;;4.00;;
10934;SDS011;5520;45.752;4.874;2023-11-21T06:50:30;7.53;;;4.50;;
10934;SDS011;5520;45.752;4.874;2023-11-21T06:52:58;10.27;;;4.70;;
10934;SDS011;5520;45.752;4.874;2023-11-21T06:55:30;5.23;;;3.37;;
10934;SDS011;5520;45.752;4.874;2023-11-21T06:57:59;5.23;;;4.37;;
10934;SDS011;5520;45.752;4.874;2023-11-21T07:00:27;9.40;;;5.23;;
10934;SDS011;5520;45.752;4.874;2023-11-21T07:02:58;6.67;;;4.63;;
10934;SDS011;5520;45.752;4.874;2023-11-21T07:05:27;8.17;;;5.23;;
10934;SDS011;5520;45.752;4.874;2023-11-21T07:07:55;6.53;;;5.20;;
10934;SDS011;5520;45.752;4.874;2023-11-21T07:10:26;7.33;;;5.30;;
10934;SDS011;5520;45.752;4.874;2023-11-21T07:12:59;12.87;;;6.07;;
10934;SDS011;5520;45.752;4.874;2023-11-21T07:15:27;9.77;;;5.43;;
10934;SDS011;5520;45.752;4.874;2023-11-21T07:17:55;7.57;;;5.20;;
10934;SDS011;5520;45.752;4.874;2023-11-21T07:20:26;8.80;;;5.10;;
10934;SDS011;5520;45.752;4.874;2023-11-21T07:26:19;8.07;;;5.17;;
10934;SDS011;5520;45.752;4.874;2023-11-21T07:28:49;11.37;;;6.93;;
10934;SDS011;5520;45.752;4.874;2023-11-21T07:31:19;7.60;;;4.93;;
10934;SDS011;5520;45.752;4.874;2023-11-21T07:33:49;7.67;;;5.50;;
10934;SDS011;5520;45.752;4.874;2023-11-21T07:36:19;7.87;;;5.47;;
10934;SDS011;5520;45.752;4.874;2023-11-21T07:38:48;9.37;;;5.70;;
10934;SDS011;5520;45.752;4.874;2023-11-21T07:41:17;8.37;;;5.60;;
10934;SDS011;5520;45.752;4.874;2023-11-21T07:43:58;7.00;;;4.73;;
10934;SDS011;5520;45.752;4.874;2023-11-21T07:46:26;10.40;;;5.47;;
10934;SDS011;5520;45.752;4.874;2023-11-21T07:48:56;11.53;;;4.87;;
10934;SDS011;5520;45.752;4.874;2023-11-21T07:51:24;8.70;;;4.83;;
10934;SDS011;5520;45.752;4.874;2023-11-21T07:53:53;6.97;;;4.90;;
10934;SDS011;5520;45.752;4.874;2023-11-21T07:56:24;11.27;;;6.00;;
10934;SDS011;5520;45.752;4.874;2023-11-21T07:58:52;9.73;;;6.33;;
10934;SDS011;5520;45.752;4.874;2023-11-21T08:01:22;8.33;;;5.57;;
10934;SDS011;5520;45.752;4.874;2023-11-21T08:03:50;5.03;;;4.43;;
10934;SDS011;5520;45.752;4.874;2023-11-21T08:06:19;7.97;;;4.10;;
10934;SDS011;5520;45.752;4.874;2023-11-21T08:08:47;7.20;;;4.60;;
10934;SDS011;5520;45.752;4.874;2023-11-21T08:11:15;7.47;;;5.43;;
10934;SDS011;5520;45.752;4.874;2023-11-21T08:13:45;10.37;;;5.10;;
10934;SDS011;5520;45.752;4.874;2023-11-21T08:16:14;6.83;;;5.47;;
10934;SDS011;5520;45.752;4.874;2023-11-21T08:18:45;9.90;;;6.73;;
10934;SDS011;5520;45.752;4.874;2023-11-21T08:21:13;9.77;;;6.60;;
10934;SDS011;5520;45.752;4.874;2023-11-21T08:23:41;10.80;;;7.07;;
10934;SDS011;5520;45.752;4.874;2023-11-21T08:26:09;9.00;;;6.83;;
10934;SDS011;5520;45.752;4.874;2023-11-21T08:28:37;11.10;;;7.67;;
10934;SDS011;5520;45.752;4.874;2023-11-21T08:31:06;11.57;;;6.93;;
10934;SDS011;5520;45.752;4.874;2023-11-21T08:33:34;11.63;;;8.00;;
10934;SDS011;5520;45.752;4.874;2023-11-21T08:36:08;10.20;;;7.50;;
10934;SDS011;5520;45.752;4.874;2023-11-21T08:38:38;11.00;;;7.07;;
10934;SDS011;5520;45.752;4.874;2023-11-21T08:41:07;14.43;;;7.23;;
10934;SDS011;5520;45.752;4.874;2023-11-21T08:43:36;7.13;;;4.33;;
10934;SDS011;5520;45.752;4.874;2023-11-21T08:46:06;6.47;;;3.93;;
10934;SDS011;5520;45.752;4.874;2023-11-21T08:48:36;6.17;;;4.00;;
10934;SDS011;5520;45.752;4.874;2023-11-21T08:51:04;5.70;;;3.67;;
10934;SDS011;5520;45.752;4.874;2023-11-21T08:53:34;8.47;;;4.27;;
10934;SDS011;5520;45.752;4.874;2023-11-21T08:56:02;7.30;;;3.73;;
10934;SDS011;5520;45.752;4.874;2023-11-21T08:58:30;8.20;;;4.40;;
10934;SDS011;5520;45.752;4.874;2023-11-21T09:01:02;4.80;;;3.33;;
10934;SDS011;5520;45.752;4.874;2023-11-21T09:03:30;4.53;;;3.00;;
10934;SDS011;5520;45.752;4.874;2023-11-21T09:06:00;4.47;;;3.17;;
10934;SDS011;5520;45.752;4.874;2023-11-21T09:08:30;5.33;;;3.30;;
10934;SDS011;5520;45.752;4.874;2023-11-21T09:11:00;5.43;;;2.83;;
10934;SDS011;5520;45.752;4.874;2023-11-21T09:13:29;16.13;;;8.67;;
10934;SDS011;5520;45.752;4.874;2023-11-21T09:15:57;6.93;;;3.83;;
10934;SDS011;5520;45.752;4.874;2023-11-21T09:18:25;3.90;;;3.20;;
10934;SDS011;5520;45.752;4.874;2023-11-21T09:20:53;4.20;;;2.90;;
10934;SDS011;5520;45.752;4.874;2023-11-21T09:23:21;2.87;;;2.60;;
10934;SDS011;5520;45.752;4.874;2023-11-21T09:25:50;4.33;;;2.40;;
10934;SDS011;5520;45.752;4.874;2023-11-21T09:28:20;5.33;;;2.40;;
10934;SDS011;5520;45.752;4.874;2023-11-21T09:30:48;3.20;;;2.23;;
10934;SDS011;5520;45.752;4.874;2023-11-21T09:33:16;2.43;;;2.23;;
10934;SDS011;5520;45.752;4.874;2023-11-21T09:35:44;2.10;;;1.40;;
10934;SDS011;5520;45.752;4.874;2023-11-21T09:38:13;2.77;;;1.77;;
10934;SDS011;5520;45.752;4.874;2023-11-21T09:40:41;3.40;;;2.00;;
10934;SDS011;5520;45.752;4.874;2023-11-21T09:43:15;3.73;;;1.83;;
10934;SDS011;5520;45.752;4.874;2023-11-21T09:45:47;3.00;;;2.47;;
10934;SDS011;5520;45.752;4.874;2023-11-21T09:48:17;5.10;;;2.23;;
10934;SDS011;5520;45.752;4.874;2023-11-21T09:50:46;7.87;;;1.97;;
10934;SDS011;5520;45.752;4.874;2023-11-21T09:53:19;3.23;;;1.63;;
10934;SDS011;5520;45.752;4.874;2023-11-21T09:55:49;3.70;;;1.93;;
10934;SDS011;5520;45.752;4.874;2023-11-21T09:58:19;2.67;;;2.00;;
10934;SDS011;5520;45.752;4.874;2023-11-21T10:00:55;4.50;;;2.13;;
10934;SDS011;5520;45.752;4.874;2023-11-21T10:03:23;2.70;;;1.97;;
10934;SDS011;5520;45.752;4.874;2023-11-21T10:05:52;3.70;;;1.67;;
10934;SDS011;5520;45.752;4.874;2023-11-21T10:08:21;3.20;;;2.53;;
10934;SDS011;5520;45.752;4.874;2023-11-21T10:10:51;3.47;;;2.10;;
10934;SDS011;5520;45.752;4.874;2023-11-21T10:13:21;3.03;;;2.00;;
10934;SDS011;5520;45.752;4.874;2023-11-21T10:15:53;4.00;;;2.30;;
10934;SDS011;5520;45.752;4.874;2023-11-21T10:18:21;3.87;;;2.40;;
10934;SDS011;5520;45.752;4.874;2023-11-21T10:20:51;2.47;;;2.27;;
10934;SDS011;5520;45.752;4.874;2023-11-21T10:23:21;2.07;;;1.60;;
10934;SDS011;5520;45.752;4.874;2023-11-21T10:25:50;2.43;;;2.00;;
10934;SDS011;5520;45.752;4.874;2023-11-21T10:28:19;4.00;;;1.60;;
10934;SDS011;5520;45.752;4.874;2023-11-21T10:30:48;3.50;;;2.07;;
10934;SDS011;5520;45.752;4.874;2023-11-21T10:33:18;3.40;;;1.50;;
10934;SDS011;5520;45.752;4.874;2023-11-21T10:35:54;1.77;;;1.10;;
10934;SDS011;5520;45.752;4.874;2023-11-21T10:38:22;1.30;;;1.20;;
10934;SDS011;5520;45.752;4.874;2023-11-21T10:40:53;3.37;;;1.30;;
10934;SDS011;5520;45.752;4.874;2023-11-21T10:43:24;1.27;;;1.17;;
10934;SDS011;5520;45.752;4.874;2023-11-21T10:45:53;2.97;;;1.20;;
10934;SDS011;5520;45.752;4.874;2023-11-21T10:48:27;2.83;;;1.30;;
10934;SDS011;5520;45.752;4.874;2023-11-21T10:50:55;1.57;;;1.20;;
10934;SDS011;5520;45.752;4.874;2023-11-21T10:53:28;1.27;;;1.10;;
10934;SDS011;5520;45.752;4.874;2023-11-21T10:56:01;1.83;;;0.93;;
10934;SDS011;5520;45.752;4.874;2023-11-21T10:58:30;0.90;;;0.90;;
10934;SDS011;5520;45.752;4.874;2023-11-21T11:00:59;1.20;;;1.10;;
10934;SDS011;5520;45.752;4.874;2023-11-21T11:03:29;2.13;;;1.50;;
10934;SDS011;5520;45.752;4.874;2023-11-21T11:06:00;1.00;;;1.00;;
10934;SDS011;5520;45.752;4.874;2023-11-21T11:08:32;4.37;;;1.17;;
10934;SDS011;5520;45.752;4.874;2023-11-21T11:11:02;0.70;;;0.70;;
10934;SDS011;5520;45.752;4.874;2023-11-21T11:13:30;1.90;;;0.97;;
10934;SDS011;5520;45.752;4.874;2023-11-21T11:15:58;1.10;;;1.00;;
10934;SDS011;5520;45.752;4.874;2023-11-21T11:18:30;2.70;;;1.20;;
10934;SDS011;5520;45.752;4.874;2023-11-21T11:21:09;2.00;;;0.90;;
10934;SDS011;5520;45.752;4.874;2023-11-21T11:23:44;3.23;;;1.40;;
10934;SDS011;5520;45.752;4.874;2023-11-21T11:26:24;2.10;;;1.07;;
10934;SDS011;5520;45.752;4.874;2023-11-21T11:28:57;1.67;;;1.20;;
10934;SDS011;5520;45.752;4.874;2023-11-21T11:31:31;1.53;;;1.00;;
10934;SDS011;5520;45.752;4.874;2023-11-21T11:34:08;1.60;;;1.00;;
10934;SDS011;5520;45.752;4.874;2023-11-21T11:36:40;5.83;;;3.83;;
10934;SDS011;5520;45.752;4.874;2023-11-21T11:39:26;5.43;;;2.60;;
10934;SDS011;5520;45.752;4.874;2023-11-21T11:41:55;1.83;;;1.00;;
10934;SDS011;5520;45.752;4.874;2023-11-21T11:47:13;1.00;;;0.90;;
10934;SDS011;5520;45.752;4.874;2023-11-21T11:49:56;0.93;;;0.80;;
10934;SDS011;5520;45.752;4.874;2023-11-21T11:52:34;1.60;;;1.00;;
10934;SDS011;5520;45.752;4.874;2023-11-21T11:55:03;0.97;;;0.90;;
10934;SDS011;5520;45.752;4.874;2023-11-21T11:57:34;2.50;;;1.17;;
10934;SDS011;5520;45.752;4.874;2023-11-21T12:00:09;1.43;;;0.90;;
10934;SDS011;5520;45.752;4.874;2023-11-21T12:02:38;4.43;;;1.07;;
10934;SDS011;5520;45.752;4.874;2023-11-21T12:05:09;1.13;;;0.90;;
10934;SDS011;5520;45.752;4.874;2023-11-21T12:07:46;0.80;;;0.80;;
10934;SDS011;5520;45.752;4.874;2023-11-21T12:10:14;0.80;;;0.80;;
10934;SDS011;5520;45.752;4.874;2023-11-21T12:12:48;0.93;;;0.67;;
10934;SDS011;5520;45.752;4.874;2023-11-21T12:15:18;0.60;;;0.60;;
10934;SDS011;5520;45.752;4.874;2023-11-21T12:17:46;0.70;;;0.70;;
10934;SDS011;5520;45.752;4.874;2023-11-21T12:20:17;1.63;;;1.20;;
10934;SDS011;5520;45.752;4.874;2023-11-21T12:22:49;0.70;;;0.70;;
10934;SDS011;5520;45.752;4.874;2023-11-21T12:25:21;2.17;;;0.90;;
10934;SDS011;5520;45.752;4.874;2023-11-21T12:27:50;2.73;;;2.00;;
10934;SDS011;5520;45.752;4.874;2023-11-21T12:30:19;0.90;;;0.83;;
10934;SDS011;5520;45.752;4.874;2023-11-21T12:32:49;1.47;;;1.20;;
10934;SDS011;5520;45.752;4.874;2023-11-21T12:35:23;1.17;;;0.87;;
10934;SDS011;5520;45.752;4.874;2023-11-21T12:38:04;0.70;;;0.70;;
10934;SDS011;5520;45.752;4.874;2023-11-21T12:40:32;0.70;;;0.70;;
10934;SDS011;5520;45.752;4.874;2023-11-21T12:43:01;1.43;;;1.20;;
10934;SDS011;5520;45.752;4.874;2023-11-21T12:45:31;1.83;;;0.93;;
10934;SDS011;5520;45.752;4.874;2023-11-21T12:48:00;0.70;;;0.70;;
10934;SDS011;5520;45.752;4.874;2023-11-21T12:50:37;1.03;;;0.80;;
10934;SDS011;5520;45.752;4.874;2023-11-21T12:53:05;0.80;;;0.80;;
10934;SDS011;5520;45.752;4.874;2023-11-21T12:55:35;0.60;;;0.60;;
10934;SDS011;5520;45.752;4.874;2023-11-21T12:58:05;2.47;;;0.77;;
10934;SDS011;5520;45.752;4.874;2023-11-21T13:00:37;2.93;;;0.70;;
10934;SDS011;5520;45.752;4.874;2023-11-21T13:03:08;0.90;;;0.90;;
10934;SDS011;5520;45.752;4.874;2023-11-21T13:05:42;0.87;;;0.87;;
10934;SDS011;5520;45.752;4.874;2023-11-21T13:08:15;0.60;;;0.60;;
10934;SDS011;5520;45.752;4.874;2023-11-21T13:10:47;1.07;;;1.00;;
10934;SDS011;5520;45.752;4.874;2023-11-21T13:13:16;0.80;;;0.80;;
10934;SDS011;5520;45.752;4.874;2023-11-21T13:15:50;1.67;;;0.60;;
10934;SDS011;5520;45.752;4.874;2023-11-21T13:18:19;0.50;;;0.50;;
10934;SDS011;5520;45.752;4.874;2023-11-21T13:20:50;2.10;;;0.90;;
10934;SDS011;5520;45.752;4.874;2023-11-21T13:23:18;0.60;;;0.60;;
10934;SDS011;5520;45.752;4.874;2023-11-21T13:25:46;2.43;;;1.07;;
10934;SDS011;5520;45.752;4.874;2023-11-21T13:28:27;1.60;;;0.90;;
10934;SDS011;5520;45.752;4.874;2023-11-21T13:31:00;1.37;;;1.03;;
10934;SDS011;5520;45.752;4.874;2023-11-21T13:33:38;2.10;;;0.90;;
10934;SDS011;5520;45.752;4.874;2023-11-21T13:36:09;1.27;;;0.90;;
10934;SDS011;5520;45.752;4.874;2023-11-21T13:38:38;1.13;;;1.03;;
10934;SDS011;5520;45.752;4.874;2023-11-21T13:41:09;5.30;;;1.43;;
10934;SDS011;5520;45.752;4.874;2023-11-21T13:43:41;1.90;;;1.30;;
10934;SDS011;5520;45.752;4.874;2023-11-21T13:46:11;1.43;;;0.90;;
10934;SDS011;5520;45.752;4.874;2023-11-21T13:48:44;1.10;;;1.00;;
10934;SDS011;5520;45.752;4.874;2023-11-21T13:51:19;1.23;;;1.00;;
10934;SDS011;5520;45.752;4.874;2023-11-21T13:53:56;3.37;;;1.00;;
10934;SDS011;5520;45.752;4.874;2023-11-21T13:56:24;0.80;;;0.80;;
10934;SDS011;5520;45.752;4.874;2023-11-21T13:58:54;0.93;;;0.93;;
10934;SDS011;5520;45.752;4.874;2023-11-21T14:01:23;1.43;;;1.33;;
10934;SDS011;5520;45.752;4.874;2023-11-21T14:04:22;1.30;;;1.13;;
10934;SDS011;5520;45.752;4.874;2023-11-21T14:07:17;3.67;;;1.73;;
10934;SDS011;5520;45.752;4.874;2023-11-21T14:09:53;0.93;;;0.93;;
10934;SDS011;5520;45.752;4.874;2023-11-21T14:12:23;1.33;;;0.80;;
10934;SDS011;5520;45.752;4.874;2023-11-21T14:14:51;1.60;;;1.00;;
10934;SDS011;5520;45.752;4.874;2023-11-21T14:20:16;2.43;;;1.00;;
10934;SDS011;5520;45.752;4.874;2023-11-21T14:25:46;2.80;;;1.10;;
10934;SDS011;5520;45.752;4.874;2023-11-21T14:28:18;2.73;;;1.10;;
10934;SDS011;5520;45.752;4.874;2023-11-21T14:30:50;1.30;;;1.20;;
10934;SDS011;5520;45.752;4.874;2023-11-21T14:33:28;2.13;;;1.33;;
10934;SDS011;5520;45.752;4.874;2023-11-21T14:36:02;1.60;;;1.37;;
10934;SDS011;5520;45.752;4.874;2023-11-21T14:38:36;1.83;;;1.10;;
10934;SDS011;5520;45.752;4.874;2023-11-21T14:41:10;5.83;;;1.20;;
10934;SDS011;5520;45.752;4.874;2023-11-21T14:43:42;2.77;;;1.40;;
10934;SDS011;5520;45.752;4.874;2023-11-21T14:46:18;1.37;;;1.10;;
10934;SDS011;5520;45.752;4.874;2023-11-21T14:48:49;1.17;;;1.17;;
10934;SDS011;5520;45.752;4.874;2023-11-21T14:51:27;1.10;;;1.10;;
10934;SDS011;5520;45.752;4.874;2023-11-21T14:53:59;1.70;;;1.60;;
10934;SDS011;5520;45.752;4.874;2023-11-21T14:56:35;1.50;;;1.40;;
10934;SDS011;5520;45.752;4.874;2023-11-21T14:59:24;1.90;;;1.53;;
10934;SDS011;5520;45.752;4.874;2023-11-21T15:01:52;1.60;;;1.33;;
10934;SDS011;5520;45.752;4.874;2023-11-21T15:04:22;0.90;;;0.90;;
10934;SDS011;5520;45.752;4.874;2023-11-21T15:07:03;1.53;;;1.40;;
10934;SDS011;5520;45.752;4.874;2023-11-21T15:09:31;2.37;;;1.90;;
10934;SDS011;5520;45.752;4.874;2023-11-21T15:12:08;1.10;;;1.10;;
10934;SDS011;5520;45.752;4.874;2023-11-21T15:14:43;1.67;;;1.27;;
10934;SDS011;5520;45.752;4.874;2023-11-21T15:17:12;2.47;;;1.40;;
10934;SDS011;5520;45.752;4.874;2023-11-21T15:19:49;3.63;;;1.57;;
10934;SDS011;5520;45.752;4.874;2023-11-21T15:22:18;1.73;;;1.63;;
10934;SDS011;5520;45.752;4.874;2023-11-21T15:24:46;1.17;;;1.13;;
10934;SDS011;5520;45.752;4.874;2023-11-21T15:27:17;0.90;;;0.90;;